sensor_id;sensor_type;location;lat;lon;timestamp;pressure;altitude;pressure_sealevel;temperature;humidity
75923;BME280;64602;47.542;19.090;2023-01-24T07:23:00;101889.53;;;3.80;85.27
75923;BME280;64602;47.542;19.090;2023-01-24T07:28:02;101899.25;;;3.97;84.70
75923;BME280;64602;47.542;19.090;2023-01-24T07:33:04;101910.78;;;4.14;84.31
75923;BME280;64602;47.542;19.090;2023-01-24T07:38:07;101898.84;;;4.25;83.55
75923;BME280;64602;47.542;19.090;2023-01-24T07:43:09;101897.78;;;4.34;83.08
75923;BME280;64602;47.542;19.090;2023-01-24T07:48:11;101899.72;;;4.57;82.43
75923;BME280;64602;47.542;19.090;2023-01-24T07:53:14;101914.63;;;4.67;82.18
75923;BME280;64602;47.542;19.090;2023-01-24T07:58:16;101910.94;;;4.68;82.54
75923;BME280;64602;47.542;19.090;2023-01-24T08:03:18;101922.09;;;4.88;82.18
75923;BME280;64602;47.542;19.090;2023-01-24T08:08:20;101925.66;;;5.35;80.75
75923;BME280;64602;47.542;19.090;2023-01-24T08:13:22;101929.69;;;5.77;79.65
75923;BME280;64602;47.542;19.090;2023-01-24T08:18:25;101934.53;;;5.82;78.84
75923;BME280;64602;47.542;19.090;2023-01-24T08:23:27;101936.56;;;6.03;78.33
75923;BME280;64602;47.542;19.090;2023-01-24T08:28:29;101939.81;;;6.13;77.13
75923;BME280;64602;47.542;19.090;2023-01-24T08:33:33;101945.75;;;6.23;76.21
75923;BME280;64602;47.542;19.090;2023-01-24T08:38:39;101950.69;;;6.19;76.16
75923;BME280;64602;47.542;19.090;2023-01-24T08:43:41;101951.09;;;6.46;75.65
75923;BME280;64602;47.542;19.090;2023-01-24T08:48:44;101952.00;;;6.68;74.93
75923;BME280;64602;47.542;19.090;2023-01-24T08:53:46;101938.78;;;6.58;74.77
75923;BME280;64602;47.542;19.090;2023-01-24T08:58:48;101949.72;;;6.87;74.96
75923;BME280;64602;47.542;19.090;2023-01-24T09:03:50;101936.84;;;7.03;73.76
75923;BME280;64602;47.542;19.090;2023-01-24T09:08:53;101939.97;;;7.22;72.65
75923;BME280;64602;47.542;19.090;2023-01-24T09:13:56;101962.28;;;7.31;72.27
75923;BME280;64602;47.542;19.090;2023-01-24T09:18:59;101957.53;;;7.54;72.04
75923;BME280;64602;47.542;19.090;2023-01-24T09:24:01;101940.00;;;7.71;70.58
75923;BME280;64602;47.542;19.090;2023-01-24T09:29:03;101952.41;;;7.87;69.95
75923;BME280;64602;47.542;19.090;2023-01-24T09:34:05;101950.31;;;8.11;69.54
75923;BME280;64602;47.542;19.090;2023-01-24T09:39:07;101952.56;;;8.07;68.21
75923;BME280;64602;47.542;19.090;2023-01-24T09:44:42;101952.37;;;8.09;68.28
75923;BME280;64602;47.542;19.090;2023-01-24T09:55:05;101934.84;;;8.33;67.51
75923;BME280;64602;47.542;19.090;2023-01-24T10:00:17;101938.91;;;8.92;66.89
75923;BME280;64602;47.542;19.090;2023-01-24T10:05:28;101940.72;;;9.73;62.79
75923;BME280;64602;47.542;19.090;2023-01-24T10:15:49;101933.81;;;10.95;57.71
75923;BME280;64602;47.542;19.090;2023-01-24T10:26:19;101924.94;;;12.94;52.12
75923;BME280;64602;47.542;19.090;2023-01-24T10:31:29;101925.50;;;13.26;49.88
75923;BME280;64602;47.542;19.090;2023-01-24T10:41:45;101918.50;;;13.60;49.33
75923;BME280;64602;47.542;19.090;2023-01-24T10:46:57;101915.75;;;16.86;42.82
75923;BME280;64602;47.542;19.090;2023-01-24T10:52:22;101904.72;;;15.98;43.63
75923;BME280;64602;47.542;19.090;2023-01-24T10:57:48;101888.69;;;14.41;47.10
75923;BME280;64602;47.542;19.090;2023-01-24T11:02:54;101884.31;;;13.46;48.33
75923;BME280;64602;47.542;19.090;2023-01-24T11:08:00;101884.34;;;12.37;50.98
75923;BME280;64602;47.542;19.090;2023-01-24T11:18:23;101876.12;;;14.28;45.02
75923;BME280;64602;47.542;19.090;2023-01-24T11:23:26;101861.72;;;12.36;49.05
75923;BME280;64602;47.542;19.090;2023-01-24T11:28:34;101842.91;;;11.23;52.40
75923;BME280;64602;47.542;19.090;2023-01-24T11:38:54;101841.53;;;10.75;54.64
75923;BME280;64602;47.542;19.090;2023-01-24T11:44:24;101818.84;;;10.11;55.34
75923;BME280;64602;47.542;19.090;2023-01-24T12:00:46;101825.50;;;10.15;57.91
75923;BME280;64602;47.542;19.090;2023-01-24T12:06:03;101826.34;;;10.16;57.99
75923;BME280;64602;47.542;19.090;2023-01-24T12:16:43;101814.62;;;13.50;48.37
75923;BME280;64602;47.542;19.090;2023-01-24T12:21:54;101823.47;;;14.04;46.92
75923;BME280;64602;47.542;19.090;2023-01-24T12:27:00;101819.78;;;17.18;40.19
75923;BME280;64602;47.542;19.090;2023-01-24T12:32:15;101819.59;;;18.78;35.63
75923;BME280;64602;47.542;19.090;2023-01-24T12:42:40;101837.06;;;22.12;30.02
75923;BME280;64602;47.542;19.090;2023-01-24T12:48:27;101835.34;;;21.68;29.94
75923;BME280;64602;47.542;19.090;2023-01-24T12:53:40;101815.22;;;17.66;35.89
75923;BME280;64602;47.542;19.090;2023-01-24T12:58:48;101806.41;;;14.95;41.86
75923;BME280;64602;47.542;19.090;2023-01-24T13:04:19;101805.66;;;13.19;46.19
75923;BME280;64602;47.542;19.090;2023-01-24T13:14:43;101796.53;;;11.68;49.03
75923;BME280;64602;47.542;19.090;2023-01-24T13:31:16;101801.25;;;10.34;57.20
75923;BME280;64602;47.542;19.090;2023-01-24T13:36:26;101803.88;;;9.89;59.51
75923;BME280;64602;47.542;19.090;2023-01-24T13:41:36;101783.53;;;9.53;61.19
75923;BME280;64602;47.542;19.090;2023-01-24T13:46:57;101781.47;;;9.35;61.85
75923;BME280;64602;47.542;19.090;2023-01-24T13:52:01;101795.84;;;9.29;62.63
75923;BME280;64602;47.542;19.090;2023-01-24T14:02:32;101800.84;;;9.25;63.09
75923;BME280;64602;47.542;19.090;2023-01-24T14:07:39;101793.34;;;9.20;62.86
75923;BME280;64602;47.542;19.090;2023-01-24T14:12:52;101800.84;;;9.12;63.22
75923;BME280;64602;47.542;19.090;2023-01-24T14:17:55;101814.56;;;8.90;63.75
75923;BME280;64602;47.542;19.090;2023-01-24T14:22:59;101804.72;;;8.76;64.29
75923;BME280;64602;47.542;19.090;2023-01-24T14:28:25;101797.00;;;8.60;64.78
75923;BME280;64602;47.542;19.090;2023-01-24T14:33:43;101805.50;;;8.43;65.25
75923;BME280;64602;47.542;19.090;2023-01-24T14:38:47;101804.31;;;8.18;65.87
75923;BME280;64602;47.542;19.090;2023-01-24T14:43:49;101805.72;;;8.07;66.69
75923;BME280;64602;47.542;19.090;2023-01-24T14:48:52;101801.81;;;7.81;67.24
75923;BME280;64602;47.542;19.090;2023-01-24T14:53:54;101811.28;;;7.64;68.16
75923;BME280;64602;47.542;19.090;2023-01-24T14:59:10;101814.78;;;7.58;68.61
75923;BME280;64602;47.542;19.090;2023-01-24T15:04:27;101808.25;;;7.45;69.34
75923;BME280;64602;47.542;19.090;2023-01-24T15:09:29;101806.03;;;7.27;69.94
75923;BME280;64602;47.542;19.090;2023-01-24T15:14:32;101821.56;;;7.19;70.68
75923;BME280;64602;47.542;19.090;2023-01-24T15:19:34;101827.03;;;7.04;71.36
75923;BME280;64602;47.542;19.090;2023-01-24T15:24:36;101824.31;;;6.82;71.94
75923;BME280;64602;47.542;19.090;2023-01-24T15:29:43;101827.28;;;6.88;73.62
75923;BME280;64602;47.542;19.090;2023-01-24T15:34:45;101832.47;;;6.89;73.27
75923;BME280;64602;47.542;19.090;2023-01-24T15:39:56;101834.00;;;6.77;73.79
75923;BME280;64602;47.542;19.090;2023-01-24T15:45:00;101829.16;;;6.51;74.70
75923;BME280;64602;47.542;19.090;2023-01-24T15:50:20;101836.97;;;6.31;75.83
75923;BME280;64602;47.542;19.090;2023-01-24T15:55:41;101835.50;;;6.13;76.51
75923;BME280;64602;47.542;19.090;2023-01-24T16:00:54;101843.06;;;6.03;77.41
75923;BME280;64602;47.542;19.090;2023-01-24T16:05:56;101844.88;;;5.88;78.68
75923;BME280;64602;47.542;19.090;2023-01-24T16:10:59;101858.91;;;5.83;79.33
75923;BME280;64602;47.542;19.090;2023-01-24T16:16:05;101870.13;;;5.72;79.80
75923;BME280;64602;47.542;19.090;2023-01-24T16:21:09;101869.56;;;5.62;80.50
75923;BME280;64602;47.542;19.090;2023-01-24T16:26:22;101863.13;;;5.48;80.91
75923;BME280;64602;47.542;19.090;2023-01-24T16:31:25;101864.19;;;5.39;81.50
75923;BME280;64602;47.542;19.090;2023-01-24T16:36:27;101860.91;;;5.28;81.73
75923;BME280;64602;47.542;19.090;2023-01-24T16:41:30;101859.97;;;5.21;82.06
75923;BME280;64602;47.542;19.090;2023-01-24T16:46:32;101852.34;;;5.10;82.05
75923;BME280;64602;47.542;19.090;2023-01-24T16:51:35;101863.81;;;5.04;82.17
75923;BME280;64602;47.542;19.090;2023-01-24T16:56:37;101880.78;;;5.04;82.26
75923;BME280;64602;47.542;19.090;2023-01-24T17:01:39;101886.22;;;4.96;82.35
75923;BME280;64602;47.542;19.090;2023-01-24T17:06:42;101883.75;;;4.86;82.65
75923;BME280;64602;47.542;19.090;2023-01-24T17:11:44;101870.37;;;4.78;82.68
75923;BME280;64602;47.542;19.090;2023-01-24T17:16:49;101870.25;;;4.71;82.86
75923;BME280;64602;47.542;19.090;2023-01-24T17:21:51;101869.56;;;4.69;82.79
75923;BME280;64602;47.542;19.090;2023-01-24T17:26:53;101880.50;;;4.68;82.93
75923;BME280;64602;47.542;19.090;2023-01-24T17:31:56;101894.13;;;4.66;83.11
75923;BME280;64602;47.542;19.090;2023-01-24T17:36:58;101882.56;;;4.58;83.10
75923;BME280;64602;47.542;19.090;2023-01-24T17:42:00;101899.00;;;4.63;83.16
75923;BME280;64602;47.542;19.090;2023-01-24T17:47:03;101895.19;;;4.57;83.24
75923;BME280;64602;47.542;19.090;2023-01-24T17:52:05;101887.81;;;4.51;83.59
75923;BME280;64602;47.542;19.090;2023-01-24T17:57:07;101878.94;;;4.42;83.66
75923;BME280;64602;47.542;19.090;2023-01-24T18:02:09;101906.50;;;4.44;83.82
75923;BME280;64602;47.542;19.090;2023-01-24T18:07:12;101900.97;;;4.38;84.23
75923;BME280;64602;47.542;19.090;2023-01-24T18:12:14;101900.66;;;4.33;84.34
75923;BME280;64602;47.542;19.090;2023-01-24T18:17:16;101898.28;;;4.29;84.63
75923;BME280;64602;47.542;19.090;2023-01-24T18:22:18;101895.13;;;4.26;84.58
75923;BME280;64602;47.542;19.090;2023-01-24T18:27:20;101888.09;;;4.17;84.70
75923;BME280;64602;47.542;19.090;2023-01-24T18:32:23;101886.28;;;4.09;84.83
75923;BME280;64602;47.542;19.090;2023-01-24T18:37:26;101898.37;;;4.13;85.11
75923;BME280;64602;47.542;19.090;2023-01-24T18:42:30;101903.44;;;4.08;84.94
75923;BME280;64602;47.542;19.090;2023-01-24T18:47:33;101903.75;;;4.05;85.25
75923;BME280;64602;47.542;19.090;2023-01-24T18:52:35;101886.81;;;3.96;85.41
75923;BME280;64602;47.542;19.090;2023-01-24T18:57:38;101904.81;;;3.96;85.42
75923;BME280;64602;47.542;19.090;2023-01-24T19:02:43;101887.19;;;3.77;85.39
75923;BME280;64602;47.542;19.090;2023-01-24T19:07:46;101905.31;;;3.75;85.80
75923;BME280;64602;47.542;19.090;2023-01-24T19:12:48;101901.66;;;3.59;86.14
75923;BME280;64602;47.542;19.090;2023-01-24T19:17:51;101893.25;;;3.46;86.39
75923;BME280;64602;47.542;19.090;2023-01-24T19:22:53;101909.69;;;3.51;86.29
75923;BME280;64602;47.542;19.090;2023-01-24T19:27:55;101899.62;;;3.37;86.22
75923;BME280;64602;47.542;19.090;2023-01-24T19:32:57;101907.53;;;3.38;86.42
75923;BME280;64602;47.542;19.090;2023-01-24T19:37:59;101908.69;;;3.36;86.51
75923;BME280;64602;47.542;19.090;2023-01-24T19:43:01;101919.59;;;3.26;86.76
75923;BME280;64602;47.542;19.090;2023-01-24T19:48:04;101908.00;;;3.17;86.56
75923;BME280;64602;47.542;19.090;2023-01-24T19:53:08;101916.03;;;3.17;86.92
75923;BME280;64602;47.542;19.090;2023-01-24T19:58:10;101912.38;;;3.18;86.97
75923;BME280;64602;47.542;19.090;2023-01-24T20:03:15;101919.75;;;3.16;87.03
75923;BME280;64602;47.542;19.090;2023-01-24T20:08:18;101913.03;;;3.12;87.24
75923;BME280;64602;47.542;19.090;2023-01-24T20:13:20;101904.78;;;3.06;87.02
75923;BME280;64602;47.542;19.090;2023-01-24T20:18:32;101911.66;;;3.00;87.24
75923;BME280;64602;47.542;19.090;2023-01-24T20:23:34;101926.25;;;2.97;87.60
75923;BME280;64602;47.542;19.090;2023-01-24T20:28:38;101931.59;;;2.97;87.78
75923;BME280;64602;47.542;19.090;2023-01-24T20:33:40;101916.81;;;2.85;88.01
75923;BME280;64602;47.542;19.090;2023-01-24T20:38:44;101933.25;;;2.90;87.95
75923;BME280;64602;47.542;19.090;2023-01-24T20:43:47;101934.91;;;2.83;88.25
75923;BME280;64602;47.542;19.090;2023-01-24T20:49:02;101937.78;;;2.82;88.30
75923;BME280;64602;47.542;19.090;2023-01-24T20:54:04;101923.81;;;2.70;88.58
75923;BME280;64602;47.542;19.090;2023-01-24T20:59:07;101930.69;;;2.72;88.62
75923;BME280;64602;47.542;19.090;2023-01-24T21:04:10;101920.25;;;2.61;88.76
75923;BME280;64602;47.542;19.090;2023-01-24T21:09:12;101925.13;;;2.58;88.90
